Terminal Aerodrome Forecast
Issued by NWS Jackson, MS

Home | Current Version | Previous Version | Text Only | Print | Product List | Glossary On
Versions: 1 2 3 4 5 6 7 8 9 10 11 12 13
000
FTUS44 KJAN 180531
TAFGWO
TAF
KGWO 180531Z 1806/1906 19014KT P6SM SCT050 BKN250
     FM180800 19013G21KT P6SM BKN025
     FM181000 19014KT P6SM BKN015
     FM181200 20017G27KT P6SM BKN015
     FM181800 23017G27KT P6SM VCSH OVC025
     FM182300 30017G26KT P6SM VCSH BKN035
     FM190300 34014KT P6SM SKC=

USA.gov is the U.S. government's official web portal to all federal, state and local government web resources and services.